aviador You're here:

KLNK Decoded Metar

LINCOLN in NE, USA
Report Time2017-05-23 13:54:00
UTC Time2017-05-23 14:40:20
Flight Rules vfr VFR
Wind310° at 09 kt
W.Decomp.*RWY 32: 8.7 kt HW 2.5 kt LCW
RWY 35: 6.3 kt HW 6.5 kt LCW
RWY 36: 5.0 kt HW 7.5 kt LCW
W.Rank310° ranks 13
Current wind is below 310° avg. (10.4)
Visibility9999 m
Phenomena:N/A
Clouds:Few 070 Hf
Expected CloudBase > 2,800 ft AGL from Temp-Dew spread
CeilingNone
Temp14°C (ISA +1)
Dew Point07°C (63% RH)
AAT10.1°C
QNH1014 hPa
Density Alt1,463 ft
Elevation1,194 ft
Report Wrong Elevation
Raw Report
KLNK 231354Z 31009KT 10SM FEW070 14/07 A2994 RMK AO2 SLP137
T01390067=

Extra information for KLNK:More info

Metar Taf Metar & Taf Last 4 Metars F.Rules Stats Wind Profile Meteogram Temp Stats Airport Information Weather charts Add Link Nearby VenuesMetar ALERT Operation Metar Decoded Social comments

AIRNAV info for KLNK